createdAt,value
2022-09-11T00:02:56.224Z,12.50
2022-09-11T00:07:57.806Z,13.65
2022-09-11T00:12:59.369Z,12.30
2022-09-11T00:18:00.920Z,10.45
2022-09-11T00:23:05.079Z,15.38
2022-09-11T00:28:07.511Z,17.00
2022-09-11T00:33:10.227Z,15.98
2022-09-11T00:38:16.654Z,17.77
2022-09-11T00:48:24.624Z,21.00
2022-09-11T00:53:30.258Z,24.08
2022-09-11T00:58:35.968Z,28.17
2022-09-11T01:03:37.669Z,31.48
2022-09-11T01:08:40.139Z,34.17
2022-09-11T01:13:58.921Z,31.63
2022-09-11T01:19:37.888Z,34.08
2022-09-11T01:25:05.862Z,37.50
2022-09-11T01:30:18.081Z,40.22
2022-09-11T01:35:41.702Z,40.97
2022-09-11T01:40:59.194Z,44.95
2022-09-11T01:46:03.934Z,49.03
2022-09-11T01:51:09.030Z,50.03
2022-09-11T01:56:16.691Z,49.88
2022-09-11T02:01:22.953Z,50.78
2022-09-11T02:06:33.033Z,50.75
2022-09-11T02:11:38.984Z,50.30
2022-09-11T02:16:52.801Z,51.67
2022-09-11T02:21:55.026Z,50.47
2022-09-11T02:27:20.593Z,53.53
2022-09-11T02:32:23.747Z,54.80
2022-09-11T02:37:41.622Z,54.08
2022-09-11T02:43:13.550Z,49.78
2022-09-11T02:48:30.792Z,50.92
2022-09-11T02:53:47.885Z,53.67
2022-09-11T02:58:56.540Z,55.13
2022-09-11T03:04:00.145Z,55.38
2022-09-11T03:09:01.788Z,58.80
2022-09-11T03:14:03.472Z,60.75
2022-09-11T03:19:07.173Z,59.72
2022-09-11T03:24:09.617Z,59.83
2022-09-11T03:29:12.476Z,57.55
2022-09-11T03:34:17.666Z,67.35
2022-09-11T03:39:20.061Z,63.25
2022-09-11T03:44:21.997Z,70.32
2022-09-11T03:49:23.772Z,70.50
2022-09-11T03:54:25.461Z,69.72
2022-09-11T03:59:28.022Z,70.72
2022-09-11T04:04:29.881Z,68.95
2022-09-11T04:09:31.796Z,61.22
2022-09-11T04:14:33.678Z,65.85
2022-09-11T04:19:37.638Z,64.20
2022-09-11T04:24:40.001Z,66.85
2022-09-11T04:29:42.586Z,62.53
2022-09-11T04:34:44.441Z,64.80
2022-09-11T04:39:48.916Z,66.43
2022-09-11T04:44:50.851Z,75.57
2022-09-11T04:49:52.760Z,67.32
2022-09-11T04:54:54.462Z,60.53
2022-09-11T04:59:56.082Z,55.72
2022-09-11T05:04:58.735Z,51.58
2022-09-11T05:10:00.530Z,51.85
2022-09-11T05:15:02.224Z,60.25
2022-09-11T05:20:11.673Z,52.20
2022-09-11T05:25:13.915Z,51.03
2022-09-11T05:30:15.706Z,60.50
2022-09-11T05:35:18.095Z,54.75
2022-09-11T05:40:20.611Z,58.95
2022-09-11T05:45:22.256Z,56.17
2022-09-11T05:50:24.009Z,59.80
2022-09-11T05:55:25.696Z,61.17
2022-09-11T06:00:27.660Z,61.25
2022-09-11T06:05:32.331Z,56.70
2022-09-11T06:10:37.194Z,52.58
2022-09-11T06:15:47.053Z,50.13
2022-09-11T06:20:58.489Z,47.58
2022-09-11T06:26:06.422Z,50.45
2022-09-11T06:31:16.716Z,43.45
2022-09-11T06:36:23.028Z,49.78
2022-09-11T06:41:27.312Z,51.05
2022-09-11T06:46:36.185Z,50.97
2022-09-11T06:51:39.866Z,49.60
2022-09-11T06:56:42.368Z,50.65
2022-09-11T07:01:44.488Z,45.92
2022-09-11T07:06:47.157Z,48.60
2022-09-11T07:11:49.560Z,51.80
2022-09-11T07:16:55.113Z,50.95
2022-09-11T07:21:56.943Z,51.17
2022-09-11T07:27:01.544Z,51.55
2022-09-11T07:32:07.358Z,57.50
2022-09-11T07:37:09.636Z,52.88
2022-09-11T07:42:12.880Z,52.30
2022-09-11T07:47:16.661Z,52.85
2022-09-11T07:52:22.314Z,46.00
2022-09-11T07:57:29.403Z,47.22
2022-09-11T08:02:31.512Z,46.30
2022-09-11T08:07:33.274Z,47.03
2022-09-11T08:12:34.989Z,44.78
2022-09-11T08:17:37.456Z,46.78
2022-09-11T08:22:39.254Z,43.28
2022-09-11T08:27:41.721Z,43.15
2022-09-11T08:32:43.727Z,46.20
2022-09-11T08:37:45.551Z,48.22
2022-09-11T08:42:47.824Z,49.58
2022-09-11T08:47:57.188Z,44.53
2022-09-11T08:53:02.902Z,44.53
2022-09-11T08:58:40.517Z,47.10
2022-09-11T09:04:11.121Z,43.05
2022-09-11T09:09:35.160Z,44.50
2022-09-11T09:14:38.549Z,49.63
2022-09-11T09:20:06.200Z,39.15
2022-09-11T09:25:15.462Z,41.65
2022-09-11T09:30:27.418Z,42.83
2022-09-11T09:35:39.351Z,42.78
2022-09-11T09:41:04.680Z,43.05
2022-09-11T09:46:36.193Z,39.75
2022-09-11T09:51:39.733Z,36.30
2022-09-11T09:56:43.372Z,37.22
2022-09-11T10:01:47.030Z,35.45
2022-09-11T10:06:52.021Z,32.55
2022-09-11T10:12:03.469Z,32.72
2022-09-11T10:17:05.122Z,43.97
2022-09-11T10:22:26.601Z,38.13
2022-09-11T10:27:32.602Z,37.80
2022-09-11T10:32:37.353Z,40.70
2022-09-11T10:37:39.089Z,34.63
2022-09-11T10:42:41.163Z,35.97
2022-09-11T10:47:43.595Z,35.60
2022-09-11T10:53:22.845Z,30.77
2022-09-11T10:58:31.298Z,28.58
2022-09-11T11:03:33.204Z,28.92
2022-09-11T11:08:59.774Z,29.17
2022-09-11T11:14:31.134Z,29.07
2022-09-11T11:19:56.308Z,26.73
2022-09-11T11:25:27.283Z,30.45
2022-09-11T11:30:44.811Z,27.42
2022-09-11T11:36:19.961Z,23.35
2022-09-11T11:41:39.040Z,18.98
2022-09-11T11:46:48.701Z,22.92
2022-09-11T11:52:03.574Z,21.08
2022-09-11T11:57:14.061Z,22.50
2022-09-11T12:02:30.711Z,19.52
2022-09-11T12:07:34.665Z,15.57
2022-09-11T12:12:55.551Z,15.90
2022-09-11T12:18:15.693Z,14.32
2022-09-11T12:23:35.293Z,12.23
2022-09-11T12:28:37.858Z,8.52
2022-09-11T12:33:44.097Z,10.00
2022-09-11T12:38:50.048Z,10.07
2022-09-11T12:43:51.781Z,8.55
2022-09-11T12:49:20.456Z,10.52
2022-09-11T12:54:29.681Z,7.88
2022-09-11T12:59:37.912Z,9.38
2022-09-11T13:04:43.288Z,9.73
2022-09-11T13:09:49.542Z,9.90
2022-09-11T13:14:56.013Z,9.13
2022-09-11T13:20:24.129Z,9.32
2022-09-11T13:25:27.906Z,7.75
2022-09-11T13:30:29.876Z,7.15
2022-09-11T13:35:32.796Z,6.88
2022-09-11T13:40:47.464Z,6.60
2022-09-11T13:45:49.155Z,5.70
2022-09-11T13:50:51.589Z,5.30
2022-09-11T13:55:53.165Z,7.47
2022-09-11T14:00:55.393Z,7.80
2022-09-11T14:06:04.644Z,5.72
2022-09-11T14:11:11.549Z,6.38
2022-09-11T14:16:13.434Z,9.27
2022-09-11T14:21:24.421Z,11.43
2022-09-11T14:26:32.387Z,12.73
2022-09-11T14:31:44.111Z,14.50
2022-09-11T14:36:50.021Z,13.18
2022-09-11T14:41:53.390Z,14.03
2022-09-11T14:46:56.043Z,13.02
2022-09-11T14:51:59.816Z,12.68
2022-09-11T14:57:01.657Z,10.95
2022-09-11T15:02:03.344Z,12.43
2022-09-11T15:07:06.844Z,9.40
2022-09-11T15:12:11.125Z,9.48
2022-09-11T15:17:17.747Z,9.82
2022-09-11T15:22:19.631Z,8.32
2022-09-11T15:27:24.868Z,8.70
2022-09-11T15:32:26.517Z,8.45
2022-09-11T15:37:28.092Z,8.60
2022-09-11T15:42:30.862Z,8.52
2022-09-11T15:47:32.417Z,9.45
2022-09-11T15:52:35.520Z,9.73
2022-09-11T15:57:38.257Z,7.97
2022-09-11T16:02:40.746Z,9.30
2022-09-11T16:07:42.313Z,7.90
2022-09-11T16:12:46.244Z,9.07
2022-09-11T16:17:48.290Z,7.55
2022-09-11T16:22:50.662Z,9.90
2022-09-11T16:27:52.895Z,8.70
2022-09-11T16:32:54.447Z,10.18
2022-09-11T16:37:56.026Z,9.07
2022-09-11T16:42:58.273Z,7.65
2022-09-11T16:48:00.078Z,6.53
2022-09-11T16:53:01.670Z,5.00
2022-09-11T16:58:03.439Z,7.18
2022-09-11T17:03:05.010Z,7.07
2022-09-11T17:08:06.649Z,7.32
2022-09-11T17:13:08.510Z,7.70
2022-09-11T17:18:10.915Z,7.25
2022-09-11T17:23:12.906Z,6.68
2022-09-11T17:28:14.507Z,7.60
2022-09-11T17:33:16.493Z,8.45
2022-09-11T17:38:18.096Z,6.45
2022-09-11T17:43:19.721Z,8.32
2022-09-11T17:48:21.418Z,7.97
2022-09-11T17:53:22.958Z,7.53
2022-09-11T17:58:24.606Z,7.30
2022-09-11T18:03:29.438Z,9.00
2022-09-11T18:08:33.100Z,5.60
2022-09-11T18:13:35.070Z,6.43
2022-09-11T18:18:39.287Z,5.03
2022-09-11T18:23:42.828Z,6.63
2022-09-11T18:28:44.836Z,6.72
2022-09-11T18:33:52.415Z,7.18
2022-09-11T18:38:56.446Z,6.45
2022-09-11T18:44:00.358Z,6.25
2022-09-11T18:49:01.976Z,5.13
2022-09-11T18:54:04.273Z,7.38
2022-09-11T18:59:05.862Z,6.45
2022-09-11T19:04:10.028Z,7.72
2022-09-11T19:09:12.808Z,9.93
2022-09-11T19:14:14.495Z,10.30
2022-09-11T19:19:16.260Z,8.43
2022-09-11T19:24:19.268Z,7.18
2022-09-11T19:29:22.510Z,7.05
2022-09-11T19:34:24.403Z,8.57
2022-09-11T19:39:26.933Z,7.78
2022-09-11T19:44:28.544Z,10.55
2022-09-11T19:49:30.181Z,10.70
2022-09-11T19:54:34.509Z,8.35
2022-09-11T19:59:36.214Z,10.63
2022-09-11T20:04:37.793Z,8.50
2022-09-11T20:09:40.224Z,9.13
2022-09-11T20:14:42.790Z,12.48
2022-09-11T20:19:44.913Z,8.75
2022-09-11T20:24:46.619Z,8.38
2022-09-11T20:29:48.229Z,7.63
2022-09-11T20:34:49.776Z,8.65
2022-09-11T20:39:51.398Z,8.23
2022-09-11T20:44:53.084Z,7.50
2022-09-11T20:49:54.756Z,8.70
2022-09-11T20:54:56.695Z,11.90
2022-09-11T20:59:58.287Z,9.75
2022-09-11T21:05:00.623Z,8.50
2022-09-11T21:10:02.840Z,9.27
2022-09-11T21:15:06.594Z,12.10
2022-09-11T21:20:08.845Z,9.55
2022-09-11T21:25:10.973Z,9.25
2022-09-11T21:30:12.974Z,10.57
2022-09-11T21:35:14.656Z,10.75
2022-09-11T21:40:16.788Z,10.07
2022-09-11T21:45:18.724Z,8.73
2022-09-11T21:50:20.502Z,9.35
2022-09-11T21:55:22.128Z,8.52
2022-09-11T22:00:24.314Z,14.15
2022-09-11T22:05:26.086Z,9.85
2022-09-11T22:10:27.701Z,11.18
2022-09-11T22:15:29.400Z,12.00
2022-09-11T22:20:31.110Z,9.32
2022-09-11T22:25:36.412Z,8.50
2022-09-11T22:30:41.772Z,10.40
2022-09-11T22:35:47.712Z,10.52
2022-09-11T22:40:54.359Z,10.27
2022-09-11T22:45:56.022Z,9.63
2022-09-11T22:50:57.692Z,10.73
2022-09-11T22:55:59.275Z,10.90
2022-09-11T23:01:03.447Z,11.35
2022-09-11T23:06:23.732Z,11.25
2022-09-11T23:11:25.693Z,10.90
2022-09-11T23:16:29.023Z,11.27
2022-09-11T23:21:33.065Z,10.70
2022-09-11T23:26:34.769Z,9.88
2022-09-11T23:31:36.638Z,12.38
2022-09-11T23:36:38.270Z,11.38
2022-09-11T23:41:39.906Z,12.23
2022-09-11T23:46:42.118Z,12.52
2022-09-11T23:51:43.755Z,12.20
2022-09-11T23:56:45.420Z,12.90
